createdAt,value
2022-09-15T00:00:53.387Z,99.90
2022-09-15T00:03:22.056Z,99.90
2022-09-15T00:05:50.853Z,99.90
2022-09-15T00:08:18.700Z,99.90
2022-09-15T00:10:54.749Z,99.90
2022-09-15T00:13:23.578Z,99.90
2022-09-15T00:15:51.301Z,99.90
2022-09-15T00:18:19.601Z,99.90
2022-09-15T00:20:47.928Z,99.90
2022-09-15T00:23:17.397Z,99.90
2022-09-15T00:25:46.179Z,99.90
2022-09-15T00:28:14.899Z,99.90
2022-09-15T00:30:47.675Z,99.90
2022-09-15T00:33:16.254Z,99.90
2022-09-15T00:35:44.823Z,99.90
2022-09-15T00:40:55.741Z,99.90
2022-09-15T00:43:43.208Z,99.90
2022-09-15T00:46:10.826Z,99.90
2022-09-15T00:48:41.841Z,99.90
2022-09-15T00:51:11.684Z,99.90
2022-09-15T00:53:48.596Z,99.90
2022-09-15T00:56:17.769Z,99.90
2022-09-15T00:58:56.116Z,99.90
2022-09-15T01:01:27.219Z,99.90
2022-09-15T01:03:55.632Z,99.90
2022-09-15T01:06:30.616Z,99.90
2022-09-15T01:09:18.819Z,99.90
2022-09-15T01:11:48.619Z,99.90
2022-09-15T01:14:18.197Z,99.90
2022-09-15T01:17:08.215Z,99.90
2022-09-15T01:19:50.105Z,99.90
2022-09-15T01:29:09.033Z,99.90
2022-09-15T01:35:20.955Z,99.90
2022-09-15T01:37:57.952Z,99.90
2022-09-15T01:40:29.563Z,99.90
2022-09-15T01:43:00.394Z,99.90
2022-09-15T01:45:31.789Z,99.90
2022-09-15T01:48:03.458Z,99.90
2022-09-15T01:50:34.483Z,99.90
2022-09-15T01:53:03.707Z,99.90
2022-09-15T01:55:38.702Z,99.90
2022-09-15T01:58:06.317Z,99.90
2022-09-15T02:00:35.999Z,99.90
2022-09-15T02:03:09.062Z,99.90
2022-09-15T02:05:41.852Z,99.90
2022-09-15T02:08:30.446Z,99.90
2022-09-15T02:11:05.375Z,99.90
2022-09-15T02:13:41.178Z,99.90
2022-09-15T02:16:21.253Z,99.90
2022-09-15T02:19:00.988Z,99.90
2022-09-15T02:21:41.062Z,99.90
2022-09-15T02:24:14.746Z,99.90
2022-09-15T02:26:43.891Z,99.90
2022-09-15T02:29:13.827Z,99.90
2022-09-15T02:31:43.025Z,99.90
2022-09-15T02:34:20.352Z,99.90
2022-09-15T02:36:48.953Z,99.90
2022-09-15T02:39:20.918Z,99.90
2022-09-15T02:41:49.434Z,99.90
2022-09-15T02:44:17.951Z,99.90
2022-09-15T02:46:47.188Z,99.90
2022-09-15T02:49:14.830Z,99.90
2022-09-15T02:51:43.407Z,99.90
2022-09-15T02:54:11.335Z,99.90
2022-09-15T02:56:41.042Z,99.90
2022-09-15T02:59:08.670Z,99.90
2022-09-15T03:01:36.343Z,99.90
2022-09-15T03:04:05.484Z,99.90
2022-09-15T03:06:37.291Z,99.90
2022-09-15T03:09:08.911Z,99.90
2022-09-15T03:11:38.730Z,99.90
2022-09-15T03:14:08.215Z,99.40
2022-09-15T03:16:36.265Z,99.10
2022-09-15T03:19:04.900Z,99.60
2022-09-15T03:21:35.849Z,99.60
2022-09-15T03:24:04.406Z,99.60
2022-09-15T03:26:32.657Z,99.50
2022-09-15T03:31:58.676Z,99.60
2022-09-15T03:34:28.992Z,98.90
2022-09-15T03:36:57.165Z,98.60
2022-09-15T03:39:27.432Z,98.70
2022-09-15T03:41:59.510Z,98.50
2022-09-15T03:44:30.210Z,98.20
2022-09-15T03:47:00.180Z,98.30
2022-09-15T03:49:29.160Z,98.30
2022-09-15T03:51:58.074Z,98.10
2022-09-15T03:54:27.186Z,97.80
2022-09-15T03:56:57.071Z,97.50
2022-09-15T03:59:25.247Z,97.80
2022-09-15T04:01:54.053Z,98.00
2022-09-15T04:04:22.164Z,97.30
2022-09-15T04:07:14.845Z,97.60
2022-09-15T04:09:42.471Z,97.60
2022-09-15T04:12:12.223Z,97.20
2022-09-15T04:14:39.904Z,97.40
2022-09-15T04:17:07.708Z,97.40
2022-09-15T04:19:35.507Z,96.80
2022-09-15T04:22:04.662Z,97.20
2022-09-15T04:24:33.019Z,96.60
2022-09-15T04:27:01.812Z,97.30
2022-09-15T04:29:31.037Z,97.60
2022-09-15T04:32:02.375Z,97.50
2022-09-15T04:34:33.286Z,97.40
2022-09-15T04:37:02.526Z,97.80
2022-09-15T04:39:31.534Z,97.70
2022-09-15T04:42:00.541Z,97.50
2022-09-15T04:44:28.384Z,97.50
2022-09-15T04:46:56.340Z,97.80
2022-09-15T04:49:24.819Z,97.90
2022-09-15T04:51:56.113Z,98.20
2022-09-15T04:54:24.774Z,97.80
2022-09-15T04:56:52.377Z,97.70
2022-09-15T04:59:23.055Z,97.30
2022-09-15T05:01:54.346Z,97.80
2022-09-15T05:04:24.874Z,97.60
2022-09-15T05:06:53.505Z,97.10
2022-09-15T05:09:22.006Z,97.60
2022-09-15T05:11:50.261Z,97.40
2022-09-15T05:14:22.728Z,97.20
2022-09-15T05:16:50.823Z,96.80
2022-09-15T05:19:25.473Z,96.30
2022-09-15T05:21:55.070Z,96.70
2022-09-15T05:24:23.236Z,95.50
2022-09-15T05:29:42.632Z,96.30
2022-09-15T05:32:24.140Z,95.70
2022-09-15T05:34:52.278Z,95.60
2022-09-15T05:37:20.200Z,95.70
2022-09-15T05:39:48.966Z,95.70
2022-09-15T05:42:17.090Z,95.70
2022-09-15T05:44:45.375Z,95.80
2022-09-15T05:47:13.175Z,95.80
2022-09-15T05:49:40.799Z,96.20
2022-09-15T05:52:09.190Z,95.00
2022-09-15T05:54:36.824Z,95.80
2022-09-15T05:57:04.490Z,95.90
2022-09-15T05:59:34.104Z,95.80
2022-09-15T06:02:03.965Z,95.60
2022-09-15T06:04:31.741Z,95.50
2022-09-15T06:07:00.186Z,95.50
2022-09-15T06:09:27.838Z,95.30
2022-09-15T06:11:56.957Z,95.30
2022-09-15T06:14:25.886Z,94.40
2022-09-15T06:16:53.650Z,94.40
2022-09-15T06:19:21.429Z,94.70
2022-09-15T06:21:49.683Z,94.70
2022-09-15T06:24:18.458Z,94.90
2022-09-15T06:26:54.701Z,94.50
2022-09-15T06:29:23.417Z,94.50
2022-09-15T06:31:54.191Z,94.00
2022-09-15T06:34:21.787Z,94.40
2022-09-15T06:36:51.749Z,94.30
2022-09-15T06:39:19.606Z,93.00
2022-09-15T06:42:02.301Z,93.90
2022-09-15T06:44:30.845Z,93.90
2022-09-15T06:46:59.519Z,94.00
2022-09-15T06:49:27.213Z,93.70
2022-09-15T06:51:55.020Z,93.80
2022-09-15T06:54:22.665Z,94.00
2022-09-15T06:56:51.229Z,94.00
2022-09-15T06:59:19.607Z,93.10
2022-09-15T07:01:47.378Z,94.10
2022-09-15T07:04:15.897Z,93.70
2022-09-15T07:06:43.807Z,93.60
2022-09-15T07:09:12.924Z,94.10
2022-09-15T07:11:40.670Z,94.10
2022-09-15T07:14:08.482Z,93.90
2022-09-15T07:16:37.439Z,94.00
2022-09-15T07:19:06.250Z,93.60
2022-09-15T07:21:34.220Z,94.00
2022-09-15T07:24:07.244Z,93.70
2022-09-15T07:26:36.059Z,93.70
2022-09-15T07:29:06.217Z,93.30
2022-09-15T07:31:34.601Z,93.60
2022-09-15T07:34:03.619Z,94.10
2022-09-15T07:36:32.565Z,94.60
2022-09-15T07:39:00.181Z,94.60
2022-09-15T07:41:30.556Z,95.00
2022-09-15T07:44:00.295Z,94.70
2022-09-15T07:46:30.318Z,94.70
2022-09-15T07:48:59.077Z,95.10
2022-09-15T07:51:27.150Z,94.90
2022-09-15T07:53:55.079Z,95.00
2022-09-15T07:56:23.647Z,95.10
2022-09-15T07:58:53.281Z,95.40
2022-09-15T08:01:22.939Z,95.40
2022-09-15T08:03:52.448Z,95.80
2022-09-15T08:06:24.587Z,95.80
2022-09-15T08:08:57.757Z,96.00
2022-09-15T08:11:29.737Z,96.00
2022-09-15T08:13:59.105Z,96.00
2022-09-15T08:16:26.786Z,96.10
2022-09-15T08:18:55.625Z,96.20
2022-09-15T08:21:23.461Z,96.40
2022-09-15T08:23:57.433Z,96.60
2022-09-15T08:26:28.382Z,97.00
2022-09-15T08:28:56.334Z,96.90
2022-09-15T08:31:26.870Z,96.90
2022-09-15T08:33:55.560Z,96.90
2022-09-15T08:36:24.874Z,97.00
2022-09-15T08:38:53.531Z,97.10
2022-09-15T08:41:27.018Z,97.10
2022-09-15T08:44:08.709Z,97.20
2022-09-15T08:46:41.066Z,97.30
2022-09-15T08:49:14.603Z,97.50
2022-09-15T08:51:46.472Z,97.80
2022-09-15T08:54:20.857Z,97.80
2022-09-15T08:56:49.564Z,97.70
2022-09-15T08:59:18.076Z,97.80
2022-09-15T09:02:09.821Z,97.80
2022-09-15T09:05:09.481Z,98.30
2022-09-15T09:07:57.894Z,98.20
2022-09-15T09:10:43.957Z,98.50
2022-09-15T09:13:25.306Z,98.60
2022-09-15T09:16:12.867Z,98.70
2022-09-15T09:18:53.713Z,98.70
2022-09-15T09:21:27.081Z,99.20
2022-09-15T09:24:07.855Z,99.10
2022-09-15T09:26:37.749Z,99.40
2022-09-15T09:29:11.714Z,99.40
2022-09-15T09:31:41.996Z,99.20
2022-09-15T09:34:28.514Z,99.30
2022-09-15T09:36:59.947Z,99.10
2022-09-15T09:39:28.609Z,99.30
2022-09-15T09:41:56.511Z,99.40
2022-09-15T09:44:32.399Z,99.40
2022-09-15T09:47:00.783Z,99.50
2022-09-15T09:52:04.105Z,99.50
2022-09-15T09:54:34.830Z,99.50
2022-09-15T09:57:14.983Z,99.50
2022-09-15T09:59:43.565Z,99.70
2022-09-15T10:02:17.141Z,99.70
2022-09-15T10:04:52.897Z,99.80
2022-09-15T10:07:27.232Z,99.90
2022-09-15T10:10:01.340Z,99.90
2022-09-15T10:12:31.190Z,99.80
2022-09-15T10:15:03.729Z,99.90
2022-09-15T10:17:51.107Z,99.90
2022-09-15T10:20:33.730Z,99.90
2022-09-15T10:23:24.774Z,99.90
2022-09-15T10:26:01.593Z,99.90
2022-09-15T10:28:29.803Z,99.90
2022-09-15T10:31:09.276Z,99.90
2022-09-15T10:33:46.173Z,99.90
2022-09-15T10:36:15.592Z,99.90
2022-09-15T10:38:46.376Z,99.90
2022-09-15T10:41:27.098Z,99.90
2022-09-15T10:44:06.903Z,99.90
2022-09-15T10:46:54.169Z,99.90
2022-09-15T10:49:32.782Z,99.90
2022-09-15T10:52:12.814Z,99.90
2022-09-15T10:54:49.251Z,99.90
2022-09-15T10:57:37.479Z,99.90
2022-09-15T11:00:12.583Z,99.90
2022-09-15T11:02:58.208Z,99.90
2022-09-15T11:05:46.419Z,99.90
2022-09-15T11:08:33.721Z,99.90
2022-09-15T11:11:08.544Z,99.90
2022-09-15T11:13:56.865Z,99.90
2022-09-15T11:16:45.960Z,99.90
2022-09-15T11:19:23.414Z,99.90
2022-09-15T11:22:03.296Z,99.90
2022-09-15T11:24:51.411Z,99.90
2022-09-15T11:27:24.596Z,99.90
2022-09-15T11:30:05.324Z,99.90
2022-09-15T11:32:52.874Z,99.90
2022-09-15T11:35:43.786Z,99.90
2022-09-15T11:38:31.359Z,99.90
2022-09-15T11:41:11.254Z,99.90
2022-09-15T11:43:47.286Z,99.90
2022-09-15T11:46:20.442Z,99.90
2022-09-15T11:48:52.571Z,99.90
2022-09-15T11:51:22.567Z,99.90
2022-09-15T11:53:55.585Z,99.90
2022-09-15T11:56:26.868Z,99.90
2022-09-15T11:59:14.945Z,99.90
2022-09-15T12:02:02.221Z,99.90
2022-09-15T12:04:32.597Z,99.90
2022-09-15T12:07:14.925Z,99.90
2022-09-15T12:09:42.692Z,99.90
2022-09-15T12:12:15.538Z,99.90
2022-09-15T12:14:45.313Z,99.90
2022-09-15T12:17:29.420Z,99.90
2022-09-15T12:20:17.542Z,99.90
2022-09-15T12:22:49.819Z,99.90
2022-09-15T12:25:20.659Z,99.90
2022-09-15T12:28:00.694Z,99.90
2022-09-15T12:30:39.565Z,99.90
2022-09-15T12:33:19.458Z,99.90
2022-09-15T12:35:47.144Z,99.90
2022-09-15T12:38:14.754Z,99.90
2022-09-15T12:40:42.687Z,99.90
2022-09-15T12:43:19.696Z,99.90
2022-09-15T12:46:05.901Z,99.90
2022-09-15T12:48:34.677Z,99.90
2022-09-15T12:51:06.400Z,99.90
2022-09-15T12:53:46.426Z,99.90
2022-09-15T12:56:23.945Z,99.90
2022-09-15T12:58:52.513Z,99.90
2022-09-15T13:01:36.126Z,99.90
2022-09-15T13:04:12.696Z,99.90
2022-09-15T13:06:40.389Z,99.90
2022-09-15T13:09:19.054Z,99.90
2022-09-15T13:11:50.571Z,99.90
2022-09-15T13:14:33.901Z,99.90
2022-09-15T13:17:11.974Z,99.90
2022-09-15T13:19:46.910Z,99.90
2022-09-15T13:22:20.339Z,99.90
2022-09-15T13:25:07.586Z,99.90
2022-09-15T13:27:37.289Z,99.90
2022-09-15T13:30:24.649Z,99.90
2022-09-15T13:33:11.950Z,99.90
2022-09-15T13:35:47.036Z,99.90
2022-09-15T13:38:31.633Z,99.90
2022-09-15T13:41:18.884Z,99.90
2022-09-15T13:43:59.441Z,99.90
2022-09-15T13:46:46.657Z,99.90
2022-09-15T13:49:23.278Z,99.90
2022-09-15T13:51:55.618Z,99.90
2022-09-15T13:54:23.245Z,99.90
2022-09-15T13:56:53.598Z,99.90
2022-09-15T13:59:27.801Z,99.90
2022-09-15T14:01:57.140Z,99.90
2022-09-15T14:04:25.772Z,99.90
2022-09-15T14:06:57.109Z,99.90
2022-09-15T14:09:33.621Z,99.90
2022-09-15T14:12:08.831Z,99.90
2022-09-15T14:14:42.254Z,99.90
2022-09-15T14:17:22.863Z,99.90
2022-09-15T14:19:51.863Z,99.90
2022-09-15T14:22:35.782Z,99.90
2022-09-15T14:25:08.185Z,99.90
2022-09-15T14:27:36.635Z,99.90
2022-09-15T14:30:06.049Z,99.90
2022-09-15T14:32:36.680Z,99.90
2022-09-15T14:35:05.900Z,99.90
2022-09-15T14:37:35.083Z,99.90
2022-09-15T14:40:13.257Z,99.90
2022-09-15T14:42:41.506Z,99.90
2022-09-15T14:48:07.467Z,99.90
2022-09-15T14:50:35.511Z,99.90
2022-09-15T14:53:13.776Z,99.90
2022-09-15T14:56:04.459Z,99.90
2022-09-15T14:58:43.622Z,99.90
2022-09-15T15:01:17.681Z,99.90
2022-09-15T15:04:10.164Z,99.90
2022-09-15T15:06:50.060Z,99.90
2022-09-15T15:09:25.368Z,99.90
2022-09-15T15:11:55.732Z,99.90
2022-09-15T15:17:00.832Z,99.90
2022-09-15T15:19:32.642Z,99.90
2022-09-15T15:22:12.470Z,99.90
2022-09-15T15:24:50.389Z,99.90
2022-09-15T15:27:38.249Z,99.90
2022-09-15T15:30:18.071Z,99.90
2022-09-15T15:32:46.029Z,99.90
2022-09-15T15:35:14.580Z,99.90
2022-09-15T15:37:42.346Z,99.90
2022-09-15T15:40:21.186Z,99.90
2022-09-15T15:42:59.390Z,99.90
2022-09-15T15:45:30.763Z,99.90
2022-09-15T15:47:58.730Z,99.90
2022-09-15T15:50:27.702Z,99.90
2022-09-15T15:52:55.489Z,99.90
2022-09-15T15:55:24.649Z,99.90
2022-09-15T15:57:53.335Z,99.90
2022-09-15T16:00:36.451Z,99.90
2022-09-15T16:03:04.478Z,99.90
2022-09-15T16:05:32.722Z,99.90
2022-09-15T16:08:02.688Z,99.90
2022-09-15T16:10:31.709Z,99.90
2022-09-15T16:12:59.469Z,99.90
2022-09-15T16:15:27.511Z,99.90
2022-09-15T16:17:55.108Z,99.90
2022-09-15T16:20:25.129Z,99.90
2022-09-15T16:22:52.836Z,99.90
2022-09-15T16:25:33.354Z,99.90
2022-09-15T16:28:01.206Z,99.90
2022-09-15T16:30:28.959Z,99.90
2022-09-15T16:32:56.645Z,99.90
2022-09-15T16:35:36.554Z,99.90
2022-09-15T16:38:04.210Z,99.90
2022-09-15T16:40:31.896Z,99.90
2022-09-15T16:42:59.635Z,99.90
2022-09-15T16:45:35.268Z,99.90
2022-09-15T16:48:05.908Z,99.90
2022-09-15T16:50:33.560Z,99.90
2022-09-15T16:53:02.123Z,99.90
2022-09-15T16:55:34.194Z,99.90
2022-09-15T16:58:02.168Z,99.90
2022-09-15T17:00:30.879Z,99.90
2022-09-15T17:02:58.865Z,99.90
2022-09-15T17:05:32.287Z,99.90
2022-09-15T17:07:59.977Z,99.90
2022-09-15T17:10:27.640Z,99.90
2022-09-15T17:12:55.386Z,99.90
2022-09-15T17:15:28.053Z,99.90
2022-09-15T17:17:56.003Z,99.90
2022-09-15T17:20:24.681Z,99.90
2022-09-15T17:22:52.799Z,99.90
2022-09-15T17:25:22.387Z,99.90
2022-09-15T17:27:50.134Z,99.90
2022-09-15T17:30:19.068Z,99.90
2022-09-15T17:32:47.168Z,99.90
2022-09-15T17:35:19.041Z,99.90
2022-09-15T17:37:46.875Z,99.90
2022-09-15T17:40:15.780Z,99.90
2022-09-15T17:42:43.794Z,99.90
2022-09-15T17:45:31.080Z,99.90
2022-09-15T17:47:58.692Z,99.90
2022-09-15T17:50:28.080Z,99.90
2022-09-15T17:53:00.117Z,99.90
2022-09-15T17:55:29.202Z,99.90
2022-09-15T17:57:57.782Z,99.90
2022-09-15T18:00:26.341Z,99.90
2022-09-15T18:02:55.214Z,99.90
2022-09-15T18:05:30.672Z,99.90
2022-09-15T18:07:59.563Z,99.90
2022-09-15T18:10:28.511Z,99.90
2022-09-15T18:12:56.525Z,99.90
2022-09-15T18:15:26.333Z,99.90
2022-09-15T18:17:55.477Z,99.90
2022-09-15T18:20:24.958Z,99.90
2022-09-15T18:22:52.800Z,99.90
2022-09-15T18:25:31.322Z,99.90
2022-09-15T18:27:59.437Z,99.90
2022-09-15T18:30:28.175Z,99.90
2022-09-15T18:32:57.120Z,99.90
2022-09-15T18:35:24.830Z,99.90
2022-09-15T18:37:59.552Z,99.90
2022-09-15T18:40:28.083Z,99.90
2022-09-15T18:42:56.859Z,99.90
2022-09-15T18:45:24.449Z,99.90
2022-09-15T18:47:52.810Z,99.90
2022-09-15T18:50:21.589Z,99.90
2022-09-15T18:52:49.725Z,99.90
2022-09-15T18:55:19.527Z,99.90
2022-09-15T18:57:47.703Z,99.90
2022-09-15T19:00:16.950Z,99.90
2022-09-15T19:02:44.948Z,99.90
2022-09-15T19:05:15.680Z,99.90
2022-09-15T19:07:45.557Z,99.90
2022-09-15T19:10:13.917Z,99.90
2022-09-15T19:12:41.582Z,99.90
2022-09-15T19:15:11.395Z,99.90
2022-09-15T19:17:40.647Z,99.90
2022-09-15T19:20:09.290Z,99.90
2022-09-15T19:22:37.298Z,99.90
2022-09-15T19:25:06.115Z,99.90
2022-09-15T19:27:34.373Z,99.90
2022-09-15T19:30:02.024Z,99.90
2022-09-15T19:32:30.482Z,99.90
2022-09-15T19:34:58.141Z,99.90
2022-09-15T19:37:25.776Z,99.90
2022-09-15T19:39:54.249Z,99.90
2022-09-15T19:42:21.974Z,99.90
2022-09-15T19:44:49.856Z,99.90
2022-09-15T19:47:17.506Z,99.90
2022-09-15T19:49:45.140Z,99.90
2022-09-15T19:52:13.139Z,99.90
2022-09-15T19:54:40.786Z,99.90
2022-09-15T19:57:08.387Z,99.90
2022-09-15T19:59:36.002Z,99.90
2022-09-15T20:02:03.707Z,99.90
2022-09-15T20:04:31.369Z,99.90
2022-09-15T20:06:58.972Z,99.90
2022-09-15T20:09:26.600Z,99.90
2022-09-15T20:11:54.362Z,99.90
2022-09-15T20:14:21.991Z,99.90
2022-09-15T20:16:49.605Z,99.90
2022-09-15T20:19:17.542Z,99.90
2022-09-15T20:21:51.600Z,99.90
2022-09-15T20:24:21.063Z,99.90
2022-09-15T20:26:48.831Z,99.90
2022-09-15T20:29:17.640Z,99.90
2022-09-15T20:31:45.361Z,99.90
2022-09-15T20:34:13.020Z,99.90
2022-09-15T20:36:40.992Z,99.90
2022-09-15T20:39:10.826Z,99.90
2022-09-15T20:41:38.454Z,99.90
2022-09-15T20:44:09.564Z,99.90
2022-09-15T20:46:37.321Z,99.90
2022-09-15T20:49:05.369Z,99.90
2022-09-15T20:51:34.029Z,99.90
2022-09-15T20:54:03.709Z,99.90
2022-09-15T20:56:32.361Z,99.90
2022-09-15T20:59:00.437Z,99.90
2022-09-15T21:01:29.626Z,99.90
2022-09-15T21:03:57.315Z,99.90
2022-09-15T21:06:26.102Z,99.90
2022-09-15T21:08:53.942Z,99.90
2022-09-15T21:11:21.974Z,99.90
2022-09-15T21:13:50.779Z,99.90
2022-09-15T21:16:22.999Z,99.90
2022-09-15T21:18:51.215Z,99.90
2022-09-15T21:21:20.321Z,99.90
2022-09-15T21:23:48.931Z,99.90
2022-09-15T21:26:18.035Z,99.90
2022-09-15T21:28:45.767Z,99.90
2022-09-15T21:31:16.275Z,99.90
2022-09-15T21:33:44.758Z,99.90
2022-09-15T21:36:13.258Z,99.90
2022-09-15T21:38:42.080Z,99.90
2022-09-15T21:41:10.579Z,99.90
2022-09-15T21:43:39.568Z,99.90
2022-09-15T21:46:09.669Z,99.90
2022-09-15T21:48:37.958Z,99.90
2022-09-15T21:51:07.186Z,99.90
2022-09-15T21:53:36.105Z,99.90
2022-09-15T21:56:05.448Z,99.90
2022-09-15T21:58:38.942Z,99.90
2022-09-15T22:01:26.442Z,99.90
2022-09-15T22:03:55.521Z,99.90
2022-09-15T22:06:27.865Z,99.90
2022-09-15T22:08:55.709Z,99.90
2022-09-15T22:11:23.952Z,99.90
2022-09-15T22:13:51.644Z,99.90
2022-09-15T22:16:20.889Z,99.90
2022-09-15T22:18:48.959Z,99.90
2022-09-15T22:21:21.251Z,99.90
2022-09-15T22:23:49.502Z,99.90
2022-09-15T22:26:20.868Z,99.90
2022-09-15T22:28:48.762Z,99.90
2022-09-15T22:31:17.531Z,99.90
2022-09-15T22:33:45.956Z,99.90
2022-09-15T22:36:14.539Z,99.90
2022-09-15T22:38:42.408Z,99.90
2022-09-15T22:41:12.382Z,99.90
2022-09-15T22:43:41.099Z,99.90
2022-09-15T22:46:09.609Z,99.90
2022-09-15T22:48:42.441Z,99.90
2022-09-15T22:51:11.456Z,99.90
2022-09-15T22:53:39.717Z,99.90
2022-09-15T22:56:10.517Z,99.90
2022-09-15T22:58:38.227Z,99.90
2022-09-15T23:01:06.964Z,99.90
2022-09-15T23:03:34.688Z,99.90
2022-09-15T23:06:02.613Z,99.90
2022-09-15T23:08:30.528Z,99.90
2022-09-15T23:11:05.982Z,99.90
2022-09-15T23:13:33.674Z,99.90
2022-09-15T23:16:01.617Z,99.90
2022-09-15T23:18:29.488Z,99.90
2022-09-15T23:20:58.337Z,99.90
2022-09-15T23:23:26.310Z,99.90
2022-09-15T23:25:54.041Z,99.90
2022-09-15T23:28:22.110Z,99.90
2022-09-15T23:30:56.711Z,99.90
2022-09-15T23:33:25.274Z,99.90
2022-09-15T23:35:52.917Z,99.90
2022-09-15T23:38:21.071Z,99.90
2022-09-15T23:40:50.180Z,99.90
2022-09-15T23:43:18.000Z,99.90
2022-09-15T23:45:47.380Z,99.90
2022-09-15T23:48:15.011Z,99.90
2022-09-15T23:50:42.979Z,99.90
2022-09-15T23:53:10.793Z,99.90
2022-09-15T23:55:39.410Z,99.90
2022-09-15T23:58:07.160Z,99.90
